createdAt,value
2022-09-09T00:02:21.472Z,15.97
2022-09-09T00:05:02.369Z,15.94
2022-09-09T00:07:33.842Z,15.90
2022-09-09T00:10:27.925Z,15.87
2022-09-09T00:13:17.185Z,15.83
2022-09-09T00:16:17.235Z,15.81
2022-09-09T00:18:53.518Z,15.81
2022-09-09T00:21:35.252Z,15.79
2022-09-09T00:24:17.606Z,15.79
2022-09-09T00:27:01.654Z,15.77
2022-09-09T00:29:44.982Z,15.76
2022-09-09T00:32:19.646Z,15.73
2022-09-09T00:34:59.591Z,15.71
2022-09-09T00:37:36.081Z,15.69
2022-09-09T00:40:27.280Z,15.68
2022-09-09T00:43:28.396Z,15.65
2022-09-09T00:46:42.076Z,15.63
2022-09-09T00:49:42.612Z,15.62
2022-09-09T00:52:31.915Z,15.62
2022-09-09T00:55:12.756Z,15.60
2022-09-09T00:57:47.179Z,15.57
2022-09-09T01:00:21.198Z,15.54
2022-09-09T01:03:15.856Z,15.52
2022-09-09T01:05:47.421Z,15.51
2022-09-09T01:08:37.318Z,15.49
2022-09-09T01:11:16.878Z,15.47
2022-09-09T01:13:59.939Z,15.47
2022-09-09T01:16:33.869Z,15.46
2022-09-09T01:19:11.842Z,15.45
2022-09-09T01:21:51.184Z,15.42
2022-09-09T01:24:36.469Z,15.40
2022-09-09T01:27:20.705Z,15.42
2022-09-09T01:29:52.457Z,15.40
2022-09-09T01:32:49.449Z,15.38
2022-09-09T01:35:59.393Z,15.40
2022-09-09T01:38:37.077Z,15.39
2022-09-09T01:41:09.137Z,15.38
2022-09-09T01:43:50.145Z,15.37
2022-09-09T01:46:23.714Z,15.37
2022-09-09T01:48:57.216Z,15.36
2022-09-09T01:51:29.583Z,15.31
2022-09-09T01:54:04.623Z,15.28
2022-09-09T01:56:53.270Z,15.24
2022-09-09T01:59:54.990Z,15.24
2022-09-09T02:02:37.263Z,15.21
2022-09-09T02:05:34.141Z,15.20
2022-09-09T02:08:29.487Z,15.22
2022-09-09T02:11:19.724Z,15.19
2022-09-09T02:14:09.537Z,15.20
2022-09-09T02:17:04.251Z,15.19
2022-09-09T02:19:59.257Z,15.16
2022-09-09T02:22:45.604Z,15.14
2022-09-09T02:25:23.548Z,15.12
2022-09-09T02:27:59.763Z,15.10
2022-09-09T02:30:35.287Z,15.09
2022-09-09T02:33:11.542Z,15.09
2022-09-09T02:35:49.477Z,15.09
2022-09-09T02:38:30.586Z,15.06
2022-09-09T02:41:07.973Z,15.05
2022-09-09T02:43:40.535Z,15.04
2022-09-09T02:46:36.277Z,15.02
2022-09-09T02:49:20.361Z,15.00
2022-09-09T02:52:01.729Z,15.02
2022-09-09T02:54:38.868Z,15.00
2022-09-09T02:57:20.451Z,14.96
2022-09-09T02:59:53.922Z,14.94
2022-09-09T03:02:26.430Z,14.93
2022-09-09T03:05:03.389Z,14.90
2022-09-09T03:07:36.042Z,14.93
2022-09-09T03:10:09.004Z,14.95
2022-09-09T03:12:41.603Z,14.94
2022-09-09T03:15:14.079Z,14.94
2022-09-09T03:17:45.665Z,14.93
2022-09-09T03:20:17.360Z,14.90
2022-09-09T03:22:48.917Z,14.90
2022-09-09T03:25:21.176Z,14.90
2022-09-09T03:27:55.851Z,14.91
2022-09-09T03:30:29.418Z,14.90
2022-09-09T03:33:01.941Z,14.91
2022-09-09T03:35:37.453Z,14.93
2022-09-09T03:38:09.016Z,14.93
2022-09-09T03:40:56.525Z,14.88
2022-09-09T03:43:30.647Z,14.88
2022-09-09T03:46:03.156Z,14.89
2022-09-09T03:48:38.111Z,14.84
2022-09-09T03:51:10.429Z,14.81
2022-09-09T03:53:44.054Z,14.79
2022-09-09T03:56:16.210Z,14.77
2022-09-09T03:58:47.925Z,14.78
2022-09-09T04:01:19.735Z,14.77
2022-09-09T04:03:53.622Z,14.78
2022-09-09T04:06:26.899Z,14.77
2022-09-09T04:08:58.721Z,14.75
2022-09-09T04:11:31.672Z,14.75
2022-09-09T04:14:06.943Z,14.75
2022-09-09T04:16:38.979Z,14.78
2022-09-09T04:19:13.382Z,14.81
2022-09-09T04:21:46.588Z,14.83
2022-09-09T04:24:18.494Z,14.84
2022-09-09T04:26:50.098Z,14.86
2022-09-09T04:29:22.074Z,14.88
2022-09-09T04:31:54.259Z,14.90
2022-09-09T04:34:26.736Z,14.96
2022-09-09T04:37:01.395Z,15.01
2022-09-09T04:39:33.679Z,15.04
2022-09-09T04:42:06.481Z,15.06
2022-09-09T04:44:38.081Z,15.08
2022-09-09T04:47:10.621Z,15.12
2022-09-09T04:49:42.137Z,15.15
2022-09-09T04:52:13.816Z,15.19
2022-09-09T04:54:45.911Z,15.21
2022-09-09T04:57:19.056Z,15.27
2022-09-09T04:59:51.939Z,15.34
2022-09-09T05:02:23.655Z,15.36
2022-09-09T05:04:56.194Z,15.42
2022-09-09T05:07:30.052Z,15.38
2022-09-09T05:10:01.722Z,15.44
2022-09-09T05:12:33.311Z,15.48
2022-09-09T05:15:05.813Z,15.51
2022-09-09T05:17:37.440Z,15.61
2022-09-09T05:20:11.243Z,15.77
2022-09-09T05:22:45.360Z,16.05
2022-09-09T05:25:17.005Z,16.22
2022-09-09T05:27:48.660Z,16.37
2022-09-09T05:30:20.953Z,16.51
2022-09-09T05:32:52.546Z,16.65
2022-09-09T05:35:24.460Z,17.03
2022-09-09T05:38:01.331Z,17.32
2022-09-09T05:40:33.578Z,17.42
2022-09-09T05:43:05.315Z,17.47
2022-09-09T05:45:37.236Z,17.48
2022-09-09T05:48:08.877Z,17.47
2022-09-09T05:50:40.417Z,17.47
2022-09-09T05:53:12.150Z,17.45
2022-09-09T05:55:45.043Z,17.43
2022-09-09T05:58:18.446Z,17.39
2022-09-09T06:00:50.024Z,17.33
2022-09-09T06:03:24.566Z,17.28
2022-09-09T06:06:01.923Z,17.31
2022-09-09T06:08:42.484Z,17.36
2022-09-09T06:11:16.941Z,17.43
2022-09-09T06:13:48.735Z,17.48
2022-09-09T06:16:24.735Z,17.54
2022-09-09T06:18:58.767Z,17.66
2022-09-09T06:21:37.954Z,17.75
2022-09-09T06:24:14.762Z,17.96
2022-09-09T06:26:46.757Z,18.35
2022-09-09T06:29:24.233Z,18.92
2022-09-09T06:31:57.696Z,19.41
2022-09-09T06:34:32.022Z,19.82
2022-09-09T06:37:05.578Z,20.09
2022-09-09T06:39:42.966Z,20.14
2022-09-09T06:42:14.597Z,20.15
2022-09-09T06:45:01.839Z,20.48
2022-09-09T06:47:50.441Z,21.06
2022-09-09T06:50:22.052Z,21.76
2022-09-09T06:52:54.947Z,22.27
2022-09-09T06:55:26.993Z,22.75
2022-09-09T06:57:59.353Z,22.97
2022-09-09T07:00:31.828Z,23.11
2022-09-09T07:03:05.929Z,23.22
2022-09-09T07:05:38.109Z,23.51
2022-09-09T07:08:09.682Z,23.60
2022-09-09T07:10:41.248Z,23.37
2022-09-09T07:13:13.114Z,23.52
2022-09-09T07:15:44.734Z,23.71
2022-09-09T07:18:16.405Z,23.65
2022-09-09T07:20:55.954Z,23.64
2022-09-09T07:23:28.067Z,23.64
2022-09-09T07:26:00.349Z,23.83
2022-09-09T07:28:32.485Z,24.09
2022-09-09T07:31:05.734Z,24.44
2022-09-09T07:33:38.021Z,24.82
2022-09-09T07:36:31.286Z,25.25
2022-09-09T07:39:12.238Z,25.26
2022-09-09T07:41:48.896Z,25.29
2022-09-09T07:44:25.718Z,25.41
2022-09-09T07:47:04.688Z,25.79
2022-09-09T07:49:50.811Z,25.73
2022-09-09T07:52:28.501Z,25.63
2022-09-09T07:55:05.538Z,25.37
2022-09-09T07:57:38.581Z,25.23
2022-09-09T08:00:11.696Z,25.44
2022-09-09T08:02:49.702Z,25.51
2022-09-09T08:05:21.621Z,25.23
2022-09-09T08:07:54.192Z,24.76
2022-09-09T08:10:26.456Z,24.52
2022-09-09T08:13:17.377Z,24.68
2022-09-09T08:15:52.127Z,24.83
2022-09-09T08:18:24.882Z,24.76
2022-09-09T08:20:56.529Z,24.69
2022-09-09T08:23:28.198Z,24.84
2022-09-09T08:26:07.790Z,24.93
2022-09-09T08:28:41.056Z,24.96
2022-09-09T08:31:19.429Z,24.96
2022-09-09T08:33:53.247Z,24.96
2022-09-09T08:36:28.561Z,24.95
2022-09-09T08:39:00.891Z,24.91
2022-09-09T08:41:59.426Z,24.95
2022-09-09T08:44:56.159Z,25.06
2022-09-09T08:47:33.938Z,25.11
2022-09-09T08:50:26.454Z,25.24
2022-09-09T08:53:18.560Z,25.48
2022-09-09T08:55:54.087Z,25.68
2022-09-09T08:58:34.017Z,25.73
2022-09-09T09:01:43.203Z,25.80
2022-09-09T09:04:34.794Z,26.04
2022-09-09T09:07:33.097Z,25.92
2022-09-09T09:10:40.581Z,26.16
2022-09-09T09:13:43.817Z,26.55
2022-09-09T09:16:18.781Z,26.94
2022-09-09T09:18:52.086Z,27.33
2022-09-09T09:21:37.445Z,27.67
2022-09-09T09:24:26.055Z,27.67
2022-09-09T09:26:58.102Z,27.87
2022-09-09T09:29:30.342Z,27.89
2022-09-09T09:32:04.239Z,28.18
2022-09-09T09:34:35.861Z,28.66
2022-09-09T09:37:20.769Z,29.00
2022-09-09T09:40:08.039Z,28.89
2022-09-09T09:42:54.087Z,29.07
2022-09-09T09:45:30.198Z,29.23
2022-09-09T09:48:13.833Z,29.81
2022-09-09T09:50:53.479Z,30.60
2022-09-09T09:53:30.734Z,30.68
2022-09-09T09:56:07.801Z,30.81
2022-09-09T09:58:45.523Z,30.73
2022-09-09T10:01:36.243Z,30.82
2022-09-09T10:04:17.405Z,30.64
2022-09-09T10:06:49.155Z,30.23
2022-09-09T10:09:26.852Z,29.94
2022-09-09T10:12:09.966Z,29.81
2022-09-09T10:15:00.020Z,29.83
2022-09-09T10:17:47.252Z,29.91
2022-09-09T10:20:45.576Z,29.96
2022-09-09T10:23:48.544Z,30.19
2022-09-09T10:26:31.528Z,30.28
2022-09-09T10:29:22.273Z,29.93
2022-09-09T10:32:12.357Z,30.08
2022-09-09T10:35:11.120Z,30.02
2022-09-09T10:37:58.598Z,29.61
2022-09-09T10:40:45.424Z,28.99
2022-09-09T10:43:28.931Z,28.97
2022-09-09T10:46:29.374Z,29.61
2022-09-09T10:49:09.681Z,30.40
2022-09-09T10:51:55.601Z,30.43
2022-09-09T10:54:34.934Z,30.33
2022-09-09T10:57:18.035Z,30.39
2022-09-09T10:59:57.842Z,30.29
2022-09-09T11:02:34.587Z,30.45
2022-09-09T11:05:29.522Z,30.81
2022-09-09T11:08:05.936Z,30.63
2022-09-09T11:10:46.074Z,30.26
2022-09-09T11:13:44.326Z,29.74
2022-09-09T11:16:24.677Z,29.41
2022-09-09T11:19:06.472Z,29.02
2022-09-09T11:21:59.721Z,29.00
2022-09-09T11:24:45.443Z,28.89
2022-09-09T11:27:38.036Z,28.69
2022-09-09T11:30:54.783Z,28.69
2022-09-09T11:33:50.170Z,28.27
2022-09-09T11:36:46.364Z,28.07
2022-09-09T11:39:48.602Z,27.70
2022-09-09T11:42:23.429Z,27.14
2022-09-09T11:44:56.149Z,26.69
2022-09-09T11:47:31.001Z,26.38
2022-09-09T11:50:31.138Z,26.28
2022-09-09T11:53:14.858Z,26.17
2022-09-09T11:55:46.505Z,25.97
2022-09-09T11:58:20.187Z,25.78
2022-09-09T12:00:51.893Z,25.60
2022-09-09T12:03:49.593Z,25.27
2022-09-09T12:06:33.009Z,24.99
2022-09-09T12:09:16.386Z,25.02
2022-09-09T12:11:47.949Z,24.99
2022-09-09T12:14:42.554Z,24.59
2022-09-09T12:17:16.861Z,24.26
2022-09-09T12:19:49.446Z,23.87
2022-09-09T12:22:24.035Z,23.48
2022-09-09T12:25:23.304Z,23.30
2022-09-09T12:28:11.189Z,23.17
2022-09-09T12:31:08.882Z,23.14
2022-09-09T12:33:46.633Z,23.04
2022-09-09T12:36:22.834Z,22.32
2022-09-09T12:38:56.186Z,21.88
2022-09-09T12:41:29.895Z,21.26
2022-09-09T12:44:10.737Z,20.82
2022-09-09T12:46:45.645Z,20.54
2022-09-09T12:49:28.643Z,20.38
2022-09-09T12:52:02.134Z,20.15
2022-09-09T12:54:37.343Z,19.61
2022-09-09T12:57:13.095Z,18.95
2022-09-09T12:59:49.264Z,18.71
2022-09-09T13:02:26.746Z,18.69
2022-09-09T13:05:17.372Z,18.62
2022-09-09T13:07:49.214Z,18.40
2022-09-09T13:10:36.816Z,18.50
2022-09-09T13:13:21.980Z,18.39
2022-09-09T13:16:05.623Z,18.45
2022-09-09T13:18:41.437Z,18.46
2022-09-09T13:21:13.305Z,18.53
2022-09-09T13:23:51.240Z,18.53
2022-09-09T13:26:22.801Z,18.61
2022-09-09T13:28:55.824Z,18.72
2022-09-09T13:31:33.740Z,18.59
2022-09-09T13:34:34.324Z,18.82
2022-09-09T13:37:15.362Z,19.11
2022-09-09T13:39:54.221Z,19.35
2022-09-09T13:42:32.385Z,19.62
2022-09-09T13:45:05.540Z,19.77
2022-09-09T13:47:38.222Z,19.93
2022-09-09T13:50:29.474Z,20.03
2022-09-09T13:53:02.461Z,20.12
2022-09-09T13:55:37.617Z,20.21
2022-09-09T13:58:17.946Z,20.32
2022-09-09T14:00:50.899Z,20.44
2022-09-09T14:03:22.628Z,20.53
2022-09-09T14:05:55.227Z,20.57
2022-09-09T14:08:28.060Z,20.66
2022-09-09T14:11:00.450Z,20.86
2022-09-09T14:13:32.304Z,21.06
2022-09-09T14:16:03.910Z,21.18
2022-09-09T14:18:35.553Z,21.27
2022-09-09T14:21:07.403Z,21.33
2022-09-09T14:23:39.540Z,21.38
2022-09-09T14:26:11.106Z,21.52
2022-09-09T14:28:54.871Z,21.61
2022-09-09T14:31:27.232Z,21.61
2022-09-09T14:33:59.823Z,21.53
2022-09-09T14:36:31.499Z,21.48
2022-09-09T14:39:03.181Z,21.41
2022-09-09T14:41:35.045Z,21.41
2022-09-09T14:44:06.700Z,21.41
2022-09-09T14:46:38.251Z,21.48
2022-09-09T14:49:11.378Z,21.51
2022-09-09T14:51:43.025Z,21.57
2022-09-09T14:54:15.829Z,21.57
2022-09-09T14:56:48.494Z,21.55
2022-09-09T14:59:23.308Z,21.59
2022-09-09T15:01:55.000Z,21.60
2022-09-09T15:04:26.606Z,21.69
2022-09-09T15:07:01.049Z,21.79
2022-09-09T15:09:32.740Z,21.83
2022-09-09T15:12:05.591Z,21.81
2022-09-09T15:14:37.264Z,21.80
2022-09-09T15:17:08.902Z,21.78
2022-09-09T15:19:40.441Z,21.79
2022-09-09T15:22:12.032Z,21.77
2022-09-09T15:24:43.628Z,21.70
2022-09-09T15:27:15.677Z,21.63
2022-09-09T15:29:47.857Z,21.59
2022-09-09T15:32:22.325Z,21.59
2022-09-09T15:34:54.359Z,21.57
2022-09-09T15:37:25.968Z,21.54
2022-09-09T15:39:59.781Z,21.51
2022-09-09T15:42:34.340Z,21.42
2022-09-09T15:45:06.997Z,21.34
2022-09-09T15:47:38.597Z,21.32
2022-09-09T15:50:11.470Z,21.28
2022-09-09T15:52:43.042Z,21.22
2022-09-09T15:55:14.693Z,21.22
2022-09-09T15:57:46.236Z,21.24
2022-09-09T16:00:17.890Z,21.18
2022-09-09T16:02:49.743Z,21.17
2022-09-09T16:05:21.966Z,21.20
2022-09-09T16:07:53.557Z,21.16
2022-09-09T16:10:25.117Z,21.14
2022-09-09T16:12:56.662Z,21.13
2022-09-09T16:15:28.211Z,21.09
2022-09-09T16:17:59.837Z,21.09
2022-09-09T16:20:31.371Z,21.06
2022-09-09T16:23:02.946Z,21.06
2022-09-09T16:25:34.691Z,21.06
2022-09-09T16:28:06.305Z,21.07
2022-09-09T16:30:38.230Z,21.06
2022-09-09T16:33:09.759Z,21.02
2022-09-09T16:35:42.026Z,20.97
2022-09-09T16:38:13.666Z,20.94
2022-09-09T16:40:45.717Z,20.97
2022-09-09T16:43:17.354Z,21.02
2022-09-09T16:45:48.923Z,21.04
2022-09-09T16:48:21.362Z,21.11
2022-09-09T16:51:22.451Z,21.15
2022-09-09T16:53:56.160Z,21.18
2022-09-09T16:56:30.930Z,21.18
2022-09-09T16:59:06.128Z,21.17
2022-09-09T17:01:41.583Z,21.17
2022-09-09T17:04:26.367Z,21.17
2022-09-09T17:07:01.261Z,21.18
2022-09-09T17:09:32.868Z,21.17
2022-09-09T17:12:04.648Z,21.15
2022-09-09T17:14:37.304Z,21.13
2022-09-09T17:17:30.167Z,21.10
2022-09-09T17:20:00.405Z,21.09
2022-09-09T17:22:31.991Z,21.08
2022-09-09T17:25:04.318Z,21.05
2022-09-09T17:27:38.941Z,21.03
2022-09-09T17:30:10.995Z,21.00
2022-09-09T17:32:42.952Z,20.99
2022-09-09T17:35:14.625Z,20.95
2022-09-09T17:37:46.414Z,20.92
2022-09-09T17:40:21.324Z,20.88
2022-09-09T17:42:52.969Z,20.82
2022-09-09T17:45:24.606Z,20.80
2022-09-09T17:47:56.249Z,20.70
2022-09-09T17:50:27.757Z,20.65
2022-09-09T17:52:59.357Z,20.60
2022-09-09T17:55:30.902Z,20.54
2022-09-09T17:58:02.452Z,20.48
2022-09-09T18:00:34.000Z,20.42
2022-09-09T18:03:05.618Z,20.41
2022-09-09T18:05:38.462Z,20.39
2022-09-09T18:08:10.232Z,20.34
2022-09-09T18:10:41.763Z,20.31
2022-09-09T18:13:13.410Z,20.26
2022-09-09T18:15:49.572Z,20.17
2022-09-09T18:18:22.193Z,20.09
2022-09-09T18:21:06.625Z,20.06
2022-09-09T18:23:40.780Z,20.03
2022-09-09T18:26:18.440Z,20.03
2022-09-09T18:28:52.421Z,20.01
2022-09-09T18:31:27.188Z,19.98
2022-09-09T18:34:01.382Z,20.01
2022-09-09T18:36:36.133Z,20.04
2022-09-09T18:39:11.561Z,20.06
2022-09-09T18:41:48.217Z,20.02
2022-09-09T18:44:28.401Z,19.96
2022-09-09T18:47:00.694Z,19.95
2022-09-09T18:49:33.323Z,19.94
2022-09-09T18:52:10.920Z,19.97
2022-09-09T18:54:48.117Z,19.94
2022-09-09T18:57:20.371Z,19.93
2022-09-09T18:59:54.705Z,19.87
2022-09-09T19:02:32.419Z,19.87
2022-09-09T19:05:04.309Z,19.81
2022-09-09T19:07:35.902Z,19.77
2022-09-09T19:10:07.840Z,19.72
2022-09-09T19:12:41.375Z,19.70
2022-09-09T19:15:13.242Z,19.54
2022-09-09T19:17:44.910Z,19.53
2022-09-09T19:20:17.676Z,19.51
2022-09-09T19:22:49.765Z,19.49
2022-09-09T19:25:22.204Z,19.49
2022-09-09T19:27:53.836Z,19.43
2022-09-09T19:30:26.323Z,19.41
2022-09-09T19:32:59.421Z,19.38
2022-09-09T19:35:31.474Z,19.38
2022-09-09T19:38:05.848Z,19.38
2022-09-09T19:40:37.417Z,19.36
2022-09-09T19:43:09.597Z,19.39
2022-09-09T19:45:41.152Z,19.32
2022-09-09T19:48:14.310Z,19.31
2022-09-09T19:50:47.872Z,19.31
2022-09-09T19:53:19.812Z,19.32
2022-09-09T19:55:51.871Z,19.28
2022-09-09T19:58:23.748Z,19.24
2022-09-09T20:00:55.334Z,19.20
2022-09-09T20:03:26.971Z,19.17
2022-09-09T20:05:58.629Z,19.12
2022-09-09T20:08:30.950Z,19.03
2022-09-09T20:11:02.976Z,18.96
2022-09-09T20:13:38.820Z,18.92
2022-09-09T20:16:16.265Z,18.91
2022-09-09T20:18:52.388Z,18.87
2022-09-09T20:21:36.079Z,18.87
2022-09-09T20:24:12.815Z,18.87
2022-09-09T20:26:46.417Z,18.88
2022-09-09T20:29:20.011Z,18.73
2022-09-09T20:31:51.990Z,18.66
2022-09-09T20:34:25.727Z,18.67
2022-09-09T20:36:59.107Z,18.63
2022-09-09T20:39:30.971Z,18.61
2022-09-09T20:42:03.446Z,18.58
2022-09-09T20:44:35.105Z,18.51
2022-09-09T20:47:07.174Z,18.46
2022-09-09T20:49:38.724Z,18.46
2022-09-09T20:52:11.687Z,18.43
2022-09-09T20:54:44.344Z,18.41
2022-09-09T20:57:20.106Z,18.41
2022-09-09T20:59:54.337Z,18.43
2022-09-09T21:02:26.316Z,18.45
2022-09-09T21:04:57.913Z,18.38
2022-09-09T21:07:29.488Z,18.37
2022-09-09T21:10:02.111Z,18.32
2022-09-09T21:12:33.741Z,18.24
2022-09-09T21:15:05.704Z,18.07
2022-09-09T21:17:37.520Z,18.03
2022-09-09T21:20:09.824Z,17.97
2022-09-09T21:22:41.377Z,17.87
2022-09-09T21:25:13.124Z,17.79
2022-09-09T21:27:44.694Z,17.79
2022-09-09T21:30:18.732Z,17.74
2022-09-09T21:32:50.394Z,17.74
2022-09-09T21:35:21.968Z,17.75
2022-09-09T21:37:54.489Z,17.73
2022-09-09T21:40:29.346Z,17.73
2022-09-09T21:43:01.030Z,17.76
2022-09-09T21:45:34.846Z,17.82
2022-09-09T21:48:12.584Z,17.79
2022-09-09T21:50:47.364Z,17.72
2022-09-09T21:53:20.309Z,17.66
2022-09-09T21:55:51.846Z,17.54
2022-09-09T21:58:23.425Z,17.44
2022-09-09T22:00:54.983Z,17.46
2022-09-09T22:03:26.671Z,17.44
2022-09-09T22:05:58.886Z,17.36
2022-09-09T22:08:30.452Z,17.36
2022-09-09T22:11:08.740Z,17.42
2022-09-09T22:13:40.668Z,17.47
2022-09-09T22:16:14.143Z,17.44
2022-09-09T22:18:51.601Z,17.43
2022-09-09T22:21:23.920Z,17.46
2022-09-09T22:23:58.006Z,17.52
2022-09-09T22:26:32.079Z,17.55
2022-09-09T22:29:04.986Z,17.55
2022-09-09T22:31:36.628Z,17.55
2022-09-09T22:34:08.311Z,17.53
2022-09-09T22:36:39.842Z,17.54
2022-09-09T22:39:11.430Z,17.52
2022-09-09T22:41:42.977Z,17.48
2022-09-09T22:44:14.913Z,17.45
2022-09-09T22:46:46.624Z,17.41
2022-09-09T22:49:18.229Z,17.32
2022-09-09T22:51:50.683Z,17.22
2022-09-09T22:54:23.636Z,17.11
2022-09-09T22:56:55.251Z,17.03
2022-09-09T22:59:28.052Z,16.98
2022-09-09T23:01:59.923Z,16.92
2022-09-09T23:04:31.485Z,16.88
2022-09-09T23:07:07.994Z,16.84
2022-09-09T23:09:39.543Z,16.79
2022-09-09T23:12:11.235Z,16.78
2022-09-09T23:14:42.817Z,16.74
2022-09-09T23:17:17.696Z,16.67
2022-09-09T23:19:56.696Z,16.63
2022-09-09T23:22:29.066Z,16.63
2022-09-09T23:25:01.667Z,16.59
2022-09-09T23:27:33.528Z,16.57
2022-09-09T23:30:07.172Z,16.58
2022-09-09T23:32:38.877Z,16.54
2022-09-09T23:35:16.009Z,16.50
2022-09-09T23:37:48.040Z,16.49
2022-09-09T23:40:19.637Z,16.49
2022-09-09T23:42:51.205Z,16.47
2022-09-09T23:45:22.759Z,16.46
2022-09-09T23:47:55.756Z,16.43
2022-09-09T23:50:30.464Z,16.39
2022-09-09T23:53:03.170Z,16.37
2022-09-09T23:55:35.791Z,16.33
2022-09-09T23:58:07.957Z,16.32
